Time;durP1;ratioP1;P1;durP2;ratioP2;P2;SDS_P1;SDS_P2;PMS_P1;PMS_P2;Temp;Humidity;BMP_temperature;BMP_pressure;BME280_temperature;BME280_humidity;BME280_pressure;Samples;Min_cycle;Max_cycle;Signal;HPM_P1;HPM_P2
2022/11/26 00:01:43;;;;;;;5.82;3.10;;;;;10.40;102343.00;;;;5022559;28;20212;-78
2022/11/26 00:04:10;;;;;;;7.45;3.05;;;;;10.40;102339.00;;;;5023347;28;21017;-78
2022/11/26 00:06:40;;;;;;;6.55;2.80;;;;;10.40;102350.00;;;;5021848;28;20203;-78
2022/11/26 00:09:14;;;;;;;6.63;2.65;;;;;10.30;102359.00;;;;5019191;28;20201;-78
2022/11/26 00:11:42;;;;;;;4.18;2.10;;;;;10.40;102345.00;;;;5023892;28;20609;-78
2022/11/26 00:14:15;;;;;;;5.10;2.88;;;;;10.30;102352.00;;;;5017744;28;20685;-78
2022/11/26 00:16:42;;;;;;;14.90;2.35;;;;;10.40;102350.00;;;;5017816;28;20205;-78
2022/11/26 00:19:10;;;;;;;4.68;2.95;;;;;10.40;102359.00;;;;5023534;28;20208;-78
2022/11/26 00:21:40;;;;;;;2.67;2.20;;;;;10.30;102357.00;;;;5022701;28;20695;-78
2022/11/26 00:24:14;;;;;;;4.97;2.33;;;;;10.30;102344.00;;;;5021583;28;20204;-78
2022/11/26 00:26:41;;;;;;;3.72;2.00;;;;;10.30;102354.00;;;;5017154;28;20209;-78
2022/11/26 00:29:10;;;;;;;3.75;2.25;;;;;10.30;102352.00;;;;5016953;28;20207;-79
2022/11/26 00:31:38;;;;;;;4.18;2.35;;;;;10.30;102354.00;;;;5017075;28;20228;-78
2022/11/26 00:34:06;;;;;;;5.47;2.10;;;;;10.30;102344.00;;;;5018772;28;20220;-78
2022/11/26 00:36:33;;;;;;;5.35;2.40;;;;;10.30;102338.00;;;;5019855;28;20207;-79
2022/11/26 00:39:03;;;;;;;9.73;2.30;;;;;10.30;102343.00;;;;5019501;28;20196;-79
2022/11/26 00:41:33;;;;;;;2.85;2.10;;;;;10.30;102344.00;;;;5016548;28;20216;-79
2022/11/26 00:44:00;;;;;;;3.22;1.95;;;;;10.30;102351.00;;;;5021242;28;20201;-79
2022/11/26 00:46:28;;;;;;;4.25;1.92;;;;;10.30;102358.00;;;;5021021;28;20220;-79
2022/11/26 00:48:56;;;;;;;4.90;2.40;;;;;10.30;102363.00;;;;5019264;28;20209;-79
2022/11/26 00:51:26;;;;;;;5.82;2.10;;;;;10.20;102355.00;;;;5020844;28;20234;-79
2022/11/26 00:53:55;;;;;;;5.00;1.90;;;;;10.20;102354.00;;;;5014985;28;20208;-79
2022/11/26 00:56:23;;;;;;;5.35;2.20;;;;;10.20;102354.00;;;;5017483;28;20223;-79
2022/11/26 00:58:51;;;;;;;3.58;2.30;;;;;10.20;102354.00;;;;5018317;28;20204;-79
2022/11/26 01:01:21;;;;;;;5.05;2.28;;;;;10.20;102363.00;;;;5020130;28;20196;-79
2022/11/26 01:03:48;;;;;;;3.17;2.20;;;;;10.20;102367.00;;;;5016857;28;20215;-78
2022/11/26 01:06:20;;;;;;;3.38;2.00;;;;;10.20;102366.00;;;;5017303;28;20212;-78
2022/11/26 01:08:48;;;;;;;4.15;2.00;;;;;10.20;102371.00;;;;5016693;28;20204;-79
2022/11/26 01:11:17;;;;;;;3.10;1.92;;;;;10.20;102373.00;;;;5015569;28;20725;-79
2022/11/26 01:13:46;;;;;;;4.15;2.03;;;;;10.20;102378.00;;;;5016277;28;20201;-78
2022/11/26 01:16:19;;;;;;;4.57;2.33;;;;;10.20;102375.00;;;;5016703;28;20201;-79
2022/11/26 01:18:48;;;;;;;3.15;2.03;;;;;10.20;102374.00;;;;5018860;28;20200;-79
2022/11/26 01:21:17;;;;;;;3.83;2.03;;;;;10.20;102370.00;;;;5017453;28;20208;-77
2022/11/26 01:23:44;;;;;;;2.83;2.03;;;;;10.20;102368.00;;;;5017813;28;20200;-77
2022/11/26 01:26:16;;;;;;;3.33;2.45;;;;;10.10;102369.00;;;;5022151;28;20196;-77
2022/11/26 01:28:43;;;;;;;3.72;2.45;;;;;10.20;102373.00;;;;5018058;28;20644;-78
2022/11/26 01:31:16;;;;;;;4.88;2.15;;;;;10.10;102371.00;;;;5015670;28;20224;-79
2022/11/26 01:33:43;;;;;;;3.95;2.53;;;;;10.10;102372.00;;;;5016812;28;20258;-79
2022/11/26 01:36:23;;;;;;;3.42;2.28;;;;;10.00;102370.00;;;;5019922;28;20840;-79
2022/11/26 01:38:52;;;;;;;4.40;2.67;;;;;10.10;102382.00;;;;5015696;28;20200;-79
2022/11/26 01:41:39;;;;;;;5.10;2.15;;;;;10.10;102375.00;;;;5016297;28;20204;-79
2022/11/26 01:44:13;;;;;;;3.38;1.88;;;;;10.10;102378.00;;;;5005052;28;20212;-79
2022/11/26 01:46:41;;;;;;;3.05;2.13;;;;;10.10;102384.00;;;;5018369;28;20203;-79
2022/11/26 01:49:18;;;;;;;5.60;2.28;;;;;10.10;102374.00;;;;5014922;28;20198;-79
2022/11/26 01:51:48;;;;;;;5.95;2.30;;;;;10.10;102373.00;;;;5018006;28;20231;-79
2022/11/26 01:54:17;;;;;;;4.72;2.28;;;;;10.10;102374.00;;;;5020724;28;20224;-79
2022/11/26 01:56:47;;;;;;;4.65;2.42;;;;;10.10;102381.00;;;;5013006;28;20707;-79
2022/11/26 01:59:21;;;;;;;3.13;2.10;;;;;10.10;102387.00;;;;5019472;28;20279;-79
2022/11/26 02:01:49;;;;;;;4.45;2.17;;;;;10.10;102377.00;;;;5014771;28;20687;-79
2022/11/26 02:04:19;;;;;;;3.65;2.65;;;;;10.10;102390.00;;;;5015498;28;20582;-79
2022/11/26 02:06:50;;;;;;;5.10;2.75;;;;;10.00;102394.00;;;;5016218;28;20200;-79
2022/11/26 02:09:19;;;;;;;3.13;2.33;;;;;10.00;102399.00;;;;5021930;28;20188;-79
2022/11/26 02:11:46;;;;;;;3.30;2.20;;;;;10.00;102405.00;;;;5019737;28;20240;-79
2022/11/26 02:14:17;;;;;;;3.05;2.22;;;;;10.00;102404.00;;;;5016988;28;20254;-79
2022/11/26 02:17:02;;;;;;;3.67;2.17;;;;;9.90;102409.00;;;;5014516;28;20201;-79
2022/11/26 02:20:06;;;;;;;5.95;2.47;;;;;9.90;102402.00;;;;5018122;28;20296;-79
2022/11/26 02:23:05;;;;;;;5.10;2.92;;;;;9.90;102405.00;;;;5021249;28;20204;-79
2022/11/26 02:25:52;;;;;;;3.08;2.33;;;;;9.90;102409.00;;;;5007674;28;20205;-79
2022/11/26 02:28:42;;;;;;;3.03;2.17;;;;;9.90;102413.00;;;;5011855;28;20266;-80
2022/11/26 02:31:14;;;;;;;4.05;2.08;;;;;9.90;102416.00;;;;5013999;28;21571;-80
2022/11/26 02:33:48;;;;;;;3.60;2.20;;;;;9.90;102416.00;;;;5018681;28;20200;-79
2022/11/26 02:36:21;;;;;;;3.20;2.05;;;;;9.90;102416.00;;;;5017806;28;20199;-79
2022/11/26 02:38:48;;;;;;;4.05;2.80;;;;;9.90;102415.00;;;;5015198;28;20230;-80
2022/11/26 02:41:15;;;;;;;3.25;2.53;;;;;9.90;102409.00;;;;5014281;28;20204;-80
2022/11/26 02:43:43;;;;;;;6.10;2.47;;;;;9.90;102408.00;;;;5018224;28;20200;-79
2022/11/26 02:46:16;;;;;;;5.85;2.35;;;;;9.80;102401.00;;;;5020819;28;20204;-79
2022/11/26 02:48:48;;;;;;;4.40;2.28;;;;;9.80;102406.00;;;;5015855;28;20211;-79
2022/11/26 02:51:22;;;;;;;6.10;2.83;;;;;9.80;102411.00;;;;5013590;28;20220;-79
2022/11/26 02:53:51;;;;;;;6.70;2.88;;;;;9.80;102409.00;;;;5018342;28;20196;-79
2022/11/26 02:56:22;;;;;;;6.38;2.85;;;;;9.80;102427.00;;;;5017536;28;20212;-80
2022/11/26 02:58:50;;;;;;;3.65;2.35;;;;;9.80;102423.00;;;;5018348;28;20197;-80
2022/11/26 03:01:27;;;;;;;2.70;2.00;;;;;9.80;102427.00;;;;5014985;28;20196;-80
2022/11/26 03:03:58;;;;;;;3.75;2.47;;;;;9.80;102425.00;;;;5007468;28;20200;-79
2022/11/26 03:06:29;;;;;;;5.10;2.92;;;;;9.80;102429.00;;;;5006901;28;20208;-79
2022/11/26 03:08:57;;;;;;;3.38;2.25;;;;;9.80;102428.00;;;;5007621;28;20185;-79
2022/11/26 03:11:24;;;;;;;6.57;2.60;;;;;9.80;102417.00;;;;5006382;28;20220;-80
2022/11/26 03:13:53;;;;;;;4.07;2.20;;;;;9.80;102424.00;;;;5014933;28;20259;-79
2022/11/26 03:16:22;;;;;;;4.00;2.40;;;;;9.80;102421.00;;;;5018241;28;20196;-79
2022/11/26 03:18:49;;;;;;;5.10;2.63;;;;;9.80;102434.00;;;;5020458;28;20196;-79
2022/11/26 03:21:17;;;;;;;3.47;2.55;;;;;9.80;102436.00;;;;5016447;28;20196;-79
2022/11/26 03:23:44;;;;;;;4.00;2.85;;;;;9.80;102437.00;;;;5014180;28;20197;-79
2022/11/26 03:26:11;;;;;;;5.22;3.13;;;;;9.80;102443.00;;;;5013448;28;20193;-77
2022/11/26 03:28:39;;;;;;;5.07;2.65;;;;;9.80;102441.00;;;;5014039;28;20185;-77
2022/11/26 03:31:06;;;;;;;5.97;2.97;;;;;9.80;102441.00;;;;5018878;28;20216;-77
2022/11/26 03:33:35;;;;;;;4.15;2.78;;;;;9.80;102443.00;;;;5014275;28;20197;-77
2022/11/26 03:36:02;;;;;;;5.45;3.22;;;;;9.80;102441.00;;;;5016104;28;20905;-77
2022/11/26 03:38:29;;;;;;;9.60;3.30;;;;;9.90;102446.00;;;;5013471;28;20556;-77
2022/11/26 03:40:58;;;;;;;4.68;2.83;;;;;9.90;102446.00;;;;5016872;28;20193;-77
2022/11/26 03:43:25;;;;;;;3.75;2.45;;;;;9.90;102450.00;;;;5018373;28;20204;-77
2022/11/26 03:45:52;;;;;;;4.45;2.95;;;;;9.90;102449.00;;;;5019824;28;20207;-77
2022/11/26 03:48:20;;;;;;;4.70;3.13;;;;;9.90;102455.00;;;;5020038;28;20188;-77
2022/11/26 03:50:48;;;;;;;4.28;2.58;;;;;9.90;102459.00;;;;5017717;28;20223;-77
2022/11/26 03:53:16;;;;;;;4.20;2.88;;;;;9.90;102459.00;;;;5019536;28;20202;-79
2022/11/26 03:55:43;;;;;;;4.57;2.95;;;;;9.90;102463.00;;;;5015378;28;20232;-79
2022/11/26 03:58:10;;;;;;;4.57;3.20;;;;;9.90;102469.00;;;;5021840;28;20200;-79
2022/11/26 04:00:37;;;;;;;4.50;3.53;;;;;9.90;102467.00;;;;5021782;28;20212;-80
2022/11/26 04:03:05;;;;;;;7.15;3.08;;;;;10.00;102473.00;;;;5017478;28;20193;-79
2022/11/26 04:05:32;;;;;;;3.67;2.50;;;;;10.00;102461.00;;;;5018139;28;20551;-79
2022/11/26 04:08:01;;;;;;;5.65;2.75;;;;;10.00;102470.00;;;;5017021;28;20208;-80
2022/11/26 04:10:29;;;;;;;4.85;2.97;;;;;10.00;102472.00;;;;5015963;28;20200;-79
2022/11/26 04:12:56;;;;;;;4.35;3.05;;;;;10.00;102477.00;;;;5021567;28;20231;-79
2022/11/26 04:15:23;;;;;;;5.47;2.53;;;;;10.00;102471.00;;;;5022934;28;20188;-79
2022/11/26 04:17:50;;;;;;;6.38;3.47;;;;;10.00;102465.00;;;;5021023;28;20193;-79
2022/11/26 04:20:18;;;;;;;4.03;2.95;;;;;10.00;102465.00;;;;5018559;28;20197;-80
2022/11/26 04:22:45;;;;;;;4.60;2.83;;;;;10.00;102479.00;;;;5023093;28;20208;-80
2022/11/26 04:25:14;;;;;;;5.20;3.05;;;;;10.00;102483.00;;;;5024495;28;20196;-79
2022/11/26 04:27:41;;;;;;;4.22;2.72;;;;;10.00;102474.00;;;;5016943;28;20212;-79
2022/11/26 04:30:10;;;;;;;6.22;2.85;;;;;10.00;102484.00;;;;5019567;28;20212;-79
2022/11/26 04:32:38;;;;;;;4.72;2.50;;;;;10.00;102485.00;;;;5018905;28;20235;-79
2022/11/26 04:35:07;;;;;;;4.03;2.83;;;;;10.00;102485.00;;;;5020830;28;20581;-79
2022/11/26 04:37:34;;;;;;;5.43;3.45;;;;;10.00;102491.00;;;;5017711;28;20702;-79
2022/11/26 04:40:02;;;;;;;4.60;3.13;;;;;10.00;102488.00;;;;5016092;28;20208;-79
2022/11/26 04:42:31;;;;;;;5.05;3.03;;;;;10.00;102483.00;;;;5017266;28;20193;-79
2022/11/26 04:44:58;;;;;;;4.57;3.08;;;;;10.00;102477.00;;;;5017570;28;20196;-79
2022/11/26 04:47:26;;;;;;;4.35;3.25;;;;;10.00;102485.00;;;;5019950;28;20196;-79
2022/11/26 04:49:53;;;;;;;3.50;2.85;;;;;10.00;102484.00;;;;5016789;28;20197;-79
2022/11/26 04:52:20;;;;;;;5.18;3.25;;;;;10.00;102485.00;;;;5018182;28;20220;-79
2022/11/26 04:54:48;;;;;;;4.05;2.83;;;;;9.90;102480.00;;;;5017589;28;20200;-79
2022/11/26 04:57:15;;;;;;;4.70;3.05;;;;;9.90;102479.00;;;;5015204;28;20217;-79
2022/11/26 04:59:43;;;;;;;4.75;2.85;;;;;9.90;102477.00;;;;5019079;28;20197;-79
2022/11/26 05:02:11;;;;;;;4.85;2.90;;;;;9.90;102484.00;;;;5008517;28;20231;-79
2022/11/26 05:04:38;;;;;;;4.18;2.85;;;;;9.90;102483.00;;;;5008851;28;20197;-79
2022/11/26 05:07:06;;;;;;;5.20;2.72;;;;;9.90;102490.00;;;;5018461;28;20216;-79
2022/11/26 05:09:33;;;;;;;6.43;2.65;;;;;9.90;102492.00;;;;5016928;28;20196;-79
2022/11/26 05:12:01;;;;;;;4.88;2.67;;;;;9.90;102491.00;;;;5017940;28;20220;-78
2022/11/26 05:14:28;;;;;;;3.10;2.45;;;;;9.90;102485.00;;;;5021130;28;20200;-79
2022/11/26 05:16:56;;;;;;;4.38;3.10;;;;;9.90;102493.00;;;;5017765;28;20192;-79
2022/11/26 05:19:24;;;;;;;4.85;2.95;;;;;9.90;102490.00;;;;5018026;28;20205;-80
2022/11/26 05:21:51;;;;;;;3.90;2.83;;;;;9.90;102497.00;;;;5021423;28;20208;-79
2022/11/26 05:24:18;;;;;;;3.38;2.78;;;;;9.90;102508.00;;;;5021138;28;20215;-79
2022/11/26 05:26:46;;;;;;;3.28;2.90;;;;;9.90;102508.00;;;;5021276;28;20214;-79
2022/11/26 05:29:13;;;;;;;4.53;3.33;;;;;9.90;102513.00;;;;5019329;28;20211;-79
2022/11/26 05:31:40;;;;;;;4.30;3.10;;;;;9.90;102505.00;;;;5021411;28;20216;-79
2022/11/26 05:34:09;;;;;;;3.58;2.70;;;;;9.90;102514.00;;;;5017099;28;20235;-79
2022/11/26 05:36:36;;;;;;;5.22;3.25;;;;;9.90;102507.00;;;;5017574;28;20209;-79
2022/11/26 05:39:04;;;;;;;5.10;2.55;;;;;9.90;102514.00;;;;5015440;28;20197;-79
2022/11/26 05:41:31;;;;;;;3.88;2.67;;;;;9.90;102520.00;;;;5021455;28;20193;-79
2022/11/26 05:43:58;;;;;;;4.90;3.10;;;;;9.80;102518.00;;;;5017442;28;20205;-79
2022/11/26 05:46:26;;;;;;;5.53;3.58;;;;;9.80;102523.00;;;;5018675;28;20200;-79
2022/11/26 05:48:53;;;;;;;5.15;3.03;;;;;9.80;102526.00;;;;5015555;28;20255;-79
2022/11/26 05:51:23;;;;;;;5.63;3.50;;;;;9.80;102527.00;;;;5017916;28;20201;-79
2022/11/26 05:53:50;;;;;;;4.50;2.85;;;;;9.80;102521.00;;;;5021037;28;20203;-79
2022/11/26 05:56:17;;;;;;;6.07;3.08;;;;;9.80;102531.00;;;;5019339;28;20585;-79
2022/11/26 05:58:44;;;;;;;5.30;3.10;;;;;9.80;102535.00;;;;5020483;28;20208;-80
2022/11/26 06:01:12;;;;;;;6.65;3.88;;;;;9.80;102538.00;;;;5017195;28;20197;-79
2022/11/26 06:03:39;;;;;;;5.00;3.35;;;;;9.80;102533.00;;;;5019252;28;20721;-79
2022/11/26 06:06:07;;;;;;;6.78;3.58;;;;;9.80;102531.00;;;;5015200;28;20208;-79
2022/11/26 06:08:36;;;;;;;7.10;3.53;;;;;9.80;102533.00;;;;5018106;28;20204;-79
2022/11/26 06:11:03;;;;;;;4.63;3.33;;;;;9.80;102526.00;;;;5020680;28;20204;-79
2022/11/26 06:13:30;;;;;;;5.38;3.45;;;;;9.80;102532.00;;;;5009961;28;20227;-79
2022/11/26 06:15:58;;;;;;;5.95;3.63;;;;;9.80;102541.00;;;;5019380;28;20200;-79
2022/11/26 06:18:25;;;;;;;7.30;3.75;;;;;9.80;102534.00;;;;5019216;28;20201;-80
2022/11/26 06:20:53;;;;;;;5.45;3.40;;;;;9.80;102545.00;;;;5016423;28;20197;-80
2022/11/26 06:23:20;;;;;;;4.97;3.47;;;;;9.80;102544.00;;;;5015749;28;20200;-80
2022/11/26 06:25:49;;;;;;;5.03;4.07;;;;;9.80;102541.00;;;;5018859;28;20207;-80
2022/11/26 06:28:16;;;;;;;5.13;3.38;;;;;9.80;102546.00;;;;5019344;28;20203;-80
2022/11/26 06:30:45;;;;;;;5.53;3.35;;;;;9.80;102552.00;;;;5017639;28;20216;-80
2022/11/26 06:33:13;;;;;;;6.10;3.53;;;;;9.80;102544.00;;;;5016687;28;20223;-80
2022/11/26 06:35:40;;;;;;;6.95;3.92;;;;;9.90;102546.00;;;;5015390;28;20223;-80
2022/11/26 06:38:09;;;;;;;5.15;3.53;;;;;9.80;102550.00;;;;5016582;28;20200;-80
2022/11/26 06:40:36;;;;;;;5.30;3.80;;;;;9.80;102550.00;;;;5016052;28;20196;-80
2022/11/26 06:43:05;;;;;;;9.65;3.90;;;;;9.80;102546.00;;;;5016184;28;20682;-80
2022/11/26 06:45:34;;;;;;;7.03;3.97;;;;;9.80;102559.00;;;;5013402;28;20205;-80
2022/11/26 06:48:01;;;;;;;6.20;4.10;;;;;9.90;102560.00;;;;5019622;28;20451;-80
2022/11/26 06:50:28;;;;;;;6.10;3.92;;;;;9.90;102562.00;;;;5022312;28;20204;-80
2022/11/26 06:52:56;;;;;;;8.35;4.15;;;;;9.90;102563.00;;;;5020857;28;20230;-79
2022/11/26 06:55:24;;;;;;;6.45;3.80;;;;;9.90;102573.00;;;;5020431;28;20196;-80
2022/11/26 06:57:51;;;;;;;5.53;4.03;;;;;9.90;102571.00;;;;5028209;28;20220;-80
2022/11/26 07:00:21;;;;;;;6.60;3.90;;;;;9.90;102572.00;;;;5032179;28;20204;-80
2022/11/26 07:02:48;;;;;;;9.25;4.82;;;;;9.90;102568.00;;;;5014334;28;20287;-80
2022/11/26 07:05:16;;;;;;;7.45;3.95;;;;;9.90;102567.00;;;;5010439;28;20200;-78
2022/11/26 07:07:43;;;;;;;6.90;4.22;;;;;9.90;102568.00;;;;5010608;28;20215;-81
2022/11/26 07:10:11;;;;;;;6.28;4.15;;;;;9.90;102571.00;;;;5014786;28;20199;-80
2022/11/26 07:12:38;;;;;;;7.15;5.22;;;;;9.90;102577.00;;;;5012353;28;20224;-80
2022/11/26 07:15:06;;;;;;;8.25;5.72;;;;;9.90;102585.00;;;;5011961;28;20200;-80
2022/11/26 07:17:35;;;;;;;8.77;6.38;;;;;9.90;102577.00;;;;5009607;28;20197;-80
2022/11/26 07:20:03;;;;;;;9.25;6.20;;;;;10.00;102586.00;;;;5010967;28;20193;-79
2022/11/26 07:22:30;;;;;;;10.13;6.75;;;;;10.00;102584.00;;;;5014009;28;20220;-80
2022/11/26 07:24:58;;;;;;;10.63;5.38;;;;;10.00;102583.00;;;;5013853;28;20197;-80
2022/11/26 07:27:25;;;;;;;8.45;5.00;;;;;10.00;102585.00;;;;5012768;28;20196;-80
2022/11/26 07:29:52;;;;;;;10.40;5.10;;;;;10.10;102588.00;;;;5022322;28;20562;-80
2022/11/26 07:32:20;;;;;;;6.97;4.65;;;;;10.10;102599.00;;;;5023892;28;20219;-79
2022/11/26 07:34:48;;;;;;;6.50;4.80;;;;;10.10;102597.00;;;;5017738;28;20240;-80
2022/11/26 07:37:16;;;;;;;6.57;4.43;;;;;10.10;102601.00;;;;5028424;28;20204;-78
2022/11/26 07:39:43;;;;;;;5.22;3.65;;;;;10.20;102602.00;;;;5028993;28;20678;-78
2022/11/26 07:42:11;;;;;;;6.47;4.20;;;;;10.20;102600.00;;;;5030433;28;20200;-78
2022/11/26 07:44:38;;;;;;;9.00;5.65;;;;;10.20;102601.00;;;;5021249;28;20209;-78
2022/11/26 07:47:06;;;;;;;9.80;6.80;;;;;10.30;102605.00;;;;5012968;28;20656;-79
2022/11/26 07:49:33;;;;;;;15.70;7.72;;;;;10.30;102607.00;;;;5012512;28;20204;-78
2022/11/26 07:52:01;;;;;;;11.13;7.45;;;;;10.30;102600.00;;;;5023769;28;20232;-79
2022/11/26 07:54:29;;;;;;;7.88;6.50;;;;;10.40;102602.00;;;;5027507;28;20233;-78
2022/11/26 07:56:56;;;;;;;8.93;6.18;;;;;10.40;102594.00;;;;5024692;28;20230;-79
2022/11/26 07:59:23;;;;;;;9.98;5.72;;;;;10.50;102602.00;;;;5012058;28;20193;-79
2022/11/26 08:01:51;;;;;;;11.50;5.85;;;;;10.50;102598.00;;;;5022586;28;20616;-79
2022/11/26 08:04:18;;;;;;;7.35;5.10;;;;;10.50;102602.00;;;;5020344;28;20188;-79
2022/11/26 08:06:45;;;;;;;10.82;5.07;;;;;10.60;102604.00;;;;5023145;28;20193;-80
2022/11/26 08:09:14;;;;;;;7.13;4.38;;;;;10.60;102611.00;;;;5013835;28;20201;-79
2022/11/26 08:11:41;;;;;;;7.18;4.10;;;;;10.70;102611.00;;;;5017764;28;20215;-79
2022/11/26 08:14:12;;;;;;;7.53;4.45;;;;;10.70;102605.00;;;;5012295;28;20232;-79
2022/11/26 08:16:39;;;;;;;7.78;4.88;;;;;10.80;102611.00;;;;5015912;28;20204;-76
2022/11/26 08:19:12;;;;;;;8.73;4.50;;;;;10.80;102611.00;;;;5030627;28;20534;-77
2022/11/26 08:21:40;;;;;;;6.03;4.25;;;;;10.90;102613.00;;;;5020096;28;20237;-76
2022/11/26 08:24:15;;;;;;;6.82;4.68;;;;;11.00;102615.00;;;;5022295;28;20299;-77
2022/11/26 08:26:44;;;;;;;6.85;4.45;;;;;11.00;102621.00;;;;5043466;28;20207;-77
2022/11/26 08:29:11;;;;;;;9.13;4.63;;;;;11.10;102622.00;;;;5018619;28;20201;-77
2022/11/26 08:31:40;;;;;;;8.90;4.65;;;;;11.20;102622.00;;;;5011776;28;20197;-78
2022/11/26 08:34:07;;;;;;;9.77;5.32;;;;;11.30;102626.00;;;;5020020;28;20250;-78
2022/11/26 08:36:34;;;;;;;7.43;4.78;;;;;11.30;102629.00;;;;5011031;28;20663;-78
2022/11/26 08:39:02;;;;;;;5.72;4.38;;;;;11.40;102626.00;;;;5019879;28;21231;-76
2022/11/26 08:41:29;;;;;;;7.05;4.53;;;;;11.40;102628.00;;;;5019034;28;20208;-76
2022/11/26 08:43:58;;;;;;;4.95;3.90;;;;;11.50;102626.00;;;;5028512;28;20196;-77
2022/11/26 08:46:25;;;;;;;7.45;4.30;;;;;11.60;102616.00;;;;5011348;28;20212;-77
2022/11/26 08:48:54;;;;;;;8.95;4.32;;;;;11.60;102620.00;;;;5011007;28;20730;-77
2022/11/26 08:51:22;;;;;;;6.07;4.30;;;;;11.70;102628.00;;;;5010257;28;20189;-76
2022/11/26 08:53:49;;;;;;;7.60;4.32;;;;;11.70;102627.00;;;;5012845;28;20231;-77
2022/11/26 08:56:16;;;;;;;10.68;4.97;;;;;11.80;102625.00;;;;5017928;28;20219;-76
2022/11/26 08:58:45;;;;;;;6.57;4.20;;;;;11.80;102627.00;;;;5015298;28;20203;-76
2022/11/26 09:01:17;;;;;;;8.57;4.38;;;;;11.80;102619.00;;;;5026870;28;20675;-76
2022/11/26 09:03:47;;;;;;;9.10;4.07;;;;;11.90;102622.00;;;;5010766;28;20200;-76
2022/11/26 09:06:14;;;;;;;9.75;4.43;;;;;12.00;102619.00;;;;5011099;28;20613;-76
2022/11/26 09:09:11;;;;;;;6.88;3.47;;;;;12.00;102622.00;;;;5010570;28;20687;-77
2022/11/26 09:11:34;;;;;;;8.73;4.20;;;;;12.10;102625.00;;;;5013909;28;20319;-78
2022/11/26 09:14:01;;;;;;;8.52;3.58;;;;;12.20;102630.00;;;;5019030;28;20340;-79
2022/11/26 09:16:30;;;;;;;6.15;3.65;;;;;12.20;102635.00;;;;5012175;28;20211;-77
2022/11/26 09:19:00;;;;;;;7.13;3.55;;;;;12.30;102645.00;;;;5030495;28;20207;-78
2022/11/26 09:21:28;;;;;;;8.63;4.15;;;;;12.30;102648.00;;;;5023383;28;20726;-78
2022/11/26 09:23:55;;;;;;;6.20;4.03;;;;;12.40;102652.00;;;;5013681;28;20213;-78
2022/11/26 09:26:24;;;;;;;10.02;4.45;;;;;12.40;102649.00;;;;5011710;28;20208;-77
2022/11/26 09:28:51;;;;;;;10.65;4.53;;;;;12.50;102652.00;;;;5018721;28;20201;-78
2022/11/26 09:31:19;;;;;;;5.38;3.67;;;;;12.60;102654.00;;;;5014331;28;20201;-79
2022/11/26 09:33:48;;;;;;;10.82;4.05;;;;;12.60;102657.00;;;;5010178;28;20247;-78
2022/11/26 09:36:17;;;;;;;9.95;4.03;;;;;12.70;102666.00;;;;5012487;28;20211;-78
2022/11/26 09:38:45;;;;;;;6.72;4.63;;;;;12.70;102677.00;;;;5022995;28;20209;-78
2022/11/26 09:41:26;;;;;;;5.70;4.32;;;;;12.70;102675.00;;;;5012826;28;20209;-78
2022/11/26 09:44:18;;;;;;;8.00;3.78;;;;;12.70;102660.00;;;;5015523;28;20207;-80
2022/11/26 09:46:51;;;;;;;8.60;3.58;;;;;12.90;102663.00;;;;5019914;28;20200;-79
2022/11/26 09:49:20;;;;;;;9.38;4.70;;;;;12.90;102658.00;;;;5025075;28;20738;-78
2022/11/26 09:51:52;;;;;;;7.13;3.83;;;;;12.90;102668.00;;;;5024866;28;20208;-78
2022/11/26 09:54:22;;;;;;;7.45;3.78;;;;;13.00;102665.00;;;;5024784;28;20220;-77
2022/11/26 09:56:53;;;;;;;9.23;4.25;;;;;13.00;102668.00;;;;5009819;28;20228;-77
2022/11/26 09:59:22;;;;;;;7.07;4.05;;;;;13.10;102655.00;;;;5009924;28;20208;-78
2022/11/26 10:01:49;;;;;;;6.22;4.03;;;;;13.20;102656.00;;;;5009654;28;20585;-77
2022/11/26 10:04:24;;;;;;;7.60;3.97;;;;;13.20;102655.00;;;;5025466;28;20216;-77
2022/11/26 10:07:01;;;;;;;7.15;3.75;;;;;13.20;102654.00;;;;5029176;28;20211;-77
2022/11/26 10:09:51;;;;;;;11.02;3.85;;;;;13.20;102660.00;;;;5011859;28;20201;-78
2022/11/26 10:12:31;;;;;;;10.50;5.05;;;;;13.40;102663.00;;;;5009340;28;20208;-79
2022/11/26 10:15:09;;;;;;;9.38;3.83;;;;;13.40;102655.00;;;;5022040;28;20654;-78
2022/11/26 10:17:46;;;;;;;7.78;3.67;;;;;13.50;102650.00;;;;5009204;28;20205;-78
2022/11/26 10:20:50;;;;;;;10.68;3.88;;;;;13.50;102648.00;;;;5009610;28;20582;-79
2022/11/26 10:23:28;;;;;;;8.02;3.75;;;;;13.70;102652.00;;;;5012837;28;20633;-78
2022/11/26 10:26:01;;;;;;;8.07;3.40;;;;;13.80;102648.00;;;;5025493;28;20196;-78
2022/11/26 10:28:32;;;;;;;9.75;4.28;;;;;13.80;102658.00;;;;5019983;28;20201;-78
2022/11/26 10:31:02;;;;;;;9.68;3.83;;;;;13.90;102659.00;;;;5013694;28;20197;-78
2022/11/26 10:33:34;;;;;;;8.77;3.38;;;;;14.00;102660.00;;;;5022271;28;20224;-78
2022/11/26 10:36:06;;;;;;;11.57;4.55;;;;;14.10;102659.00;;;;5008467;28;20313;-79
2022/11/26 10:38:33;;;;;;;6.47;3.35;;;;;14.20;102656.00;;;;5009354;28;20200;-78
2022/11/26 10:41:00;;;;;;;9.05;3.58;;;;;14.20;102660.00;;;;5016238;28;20211;-78
2022/11/26 10:43:28;;;;;;;7.68;3.88;;;;;14.30;102656.00;;;;5008937;28;20197;-78
2022/11/26 10:45:56;;;;;;;8.13;3.42;;;;;14.40;102654.00;;;;5008940;28;20585;-77
2022/11/26 10:48:27;;;;;;;8.35;3.22;;;;;14.40;102648.00;;;;5008502;28;20208;-78
2022/11/26 10:51:05;;;;;;;7.80;3.65;;;;;14.40;102647.00;;;;5009166;28;20212;-78
2022/11/26 10:53:46;;;;;;;11.15;3.85;;;;;14.50;102635.00;;;;5016828;28;20225;-77
2022/11/26 10:56:18;;;;;;;8.18;3.80;;;;;14.60;102628.00;;;;5008709;28;21095;-77
2022/11/26 10:58:46;;;;;;;8.80;3.40;;;;;14.70;102644.00;;;;5013798;28;20290;-77
2022/11/26 11:01:14;;;;;;;8.93;3.22;;;;;14.70;102641.00;;;;5017176;28;20208;-77
2022/11/26 11:03:49;;;;;;;7.57;3.40;;;;;14.70;102643.00;;;;5028430;28;20298;-77
2022/11/26 11:06:40;;;;;;;9.93;3.63;;;;;14.70;102641.00;;;;5027248;28;20192;-77
2022/11/26 11:09:30;;;;;;;8.75;3.70;;;;;14.80;102638.00;;;;5007963;28;20189;-78
2022/11/26 11:12:24;;;;;;;8.80;3.63;;;;;14.90;102647.00;;;;5001946;28;20201;-77
2022/11/26 11:14:52;;;;;;;6.70;2.97;;;;;15.10;102638.00;;;;4952147;28;20225;-77
2022/11/26 11:17:29;;;;;;;6.90;3.13;;;;;15.20;102634.00;;;;5018695;28;20204;-76
2022/11/26 11:19:57;;;;;;;9.60;3.45;;;;;15.30;102643.00;;;;5018378;28;20204;-76
2022/11/26 11:22:27;;;;;;;10.50;3.45;;;;;15.40;102644.00;;;;5011950;28;20200;-77
2022/11/26 11:24:58;;;;;;;5.78;3.00;;;;;15.50;102642.00;;;;5014720;28;20200;-77
2022/11/26 11:27:27;;;;;;;7.75;3.10;;;;;15.60;102633.00;;;;5013929;28;20197;-76
2022/11/26 11:30:01;;;;;;;7.68;3.10;;;;;15.60;102643.00;;;;5012707;28;20559;-76
2022/11/26 11:32:35;;;;;;;6.82;3.30;;;;;15.70;102630.00;;;;5008187;28;20201;-76
2022/11/26 11:35:21;;;;;;;10.10;3.03;;;;;15.70;102644.00;;;;5016021;28;20240;-77
2022/11/26 11:37:51;;;;;;;8.30;3.38;;;;;15.90;102641.00;;;;5023154;28;20715;-77
2022/11/26 11:40:24;;;;;;;5.05;2.83;;;;;15.90;102644.00;;;;5013541;28;20200;-78
2022/11/26 11:42:54;;;;;;;9.43;3.03;;;;;16.00;102639.00;;;;5022472;28;20193;-77
2022/11/26 11:45:27;;;;;;;5.05;2.42;;;;;16.00;102628.00;;;;5016491;28;20203;-77
2022/11/26 11:48:00;;;;;;;6.80;2.72;;;;;16.10;102638.00;;;;5028146;28;20204;-77
2022/11/26 11:50:32;;;;;;;8.43;2.85;;;;;16.10;102635.00;;;;5028120;28;20612;-77
2022/11/26 11:53:26;;;;;;;6.07;3.15;;;;;16.10;102633.00;;;;5026223;28;20280;-77
2022/11/26 11:56:07;;;;;;;6.70;2.95;;;;;16.20;102626.00;;;;5021416;28;20213;-77
2022/11/26 11:59:04;;;;;;;4.57;2.80;;;;;16.20;102624.00;;;;5007927;28;20300;-77
2022/11/26 12:01:47;;;;;;;5.88;2.47;;;;;16.30;102618.00;;;;4991928;28;20212;-77
2022/11/26 12:04:25;;;;;;;6.13;2.50;;;;;16.40;102614.00;;;;5007398;28;20197;-77
2022/11/26 12:07:13;;;;;;;8.30;2.88;;;;;16.40;102616.00;;;;5014940;28;20220;-76
2022/11/26 12:09:48;;;;;;;8.93;3.38;;;;;16.50;102620.00;;;;5009277;28;21098;-75
2022/11/26 12:12:21;;;;;;;14.00;2.97;;;;;16.50;102621.00;;;;5025482;28;20203;-75
2022/11/26 12:14:54;;;;;;;8.23;2.45;;;;;16.60;102622.00;;;;5025718;28;20232;-74
2022/11/26 12:17:33;;;;;;;10.98;3.15;;;;;16.70;102620.00;;;;5025905;28;20316;-75
2022/11/26 12:20:07;;;;;;;4.70;2.08;;;;;16.70;102624.00;;;;5015108;28;20212;-75
2022/11/26 12:22:41;;;;;;;3.38;2.30;;;;;16.80;102616.00;;;;5014128;28;20250;-76
2022/11/26 12:25:20;;;;;;;6.88;2.75;;;;;16.80;102619.00;;;;5020204;28;20810;-75
2022/11/26 12:27:52;;;;;;;8.32;2.85;;;;;16.80;102625.00;;;;5011203;28;20197;-75